sensor_id;sensor_type;location;lat;lon;timestamp;pressure;altitude;pressure_sealevel;temperature;humidity
70468;BME280;57934;51.532;7.684;2023-04-22T01:49:34;99651.50;;;9.80;nan
70468;BME280;57934;51.532;7.684;2023-04-22T01:52:00;99646.41;;;9.79;nan
70468;BME280;57934;51.532;7.684;2023-04-22T01:56:52;99662.44;;;9.77;nan
70468;BME280;57934;51.532;7.684;2023-04-22T01:59:19;99656.16;;;9.78;nan
70468;BME280;57934;51.532;7.684;2023-04-22T02:01:46;99661.00;;;9.82;nan
70468;BME280;57934;51.532;7.684;2023-04-22T02:04:12;99663.03;;;9.86;nan
70468;BME280;57934;51.532;7.684;2023-04-22T02:06:40;99656.53;;;9.89;nan
70468;BME280;57934;51.532;7.684;2023-04-22T02:09:07;99663.22;;;9.85;nan
70468;BME280;57934;51.532;7.684;2023-04-22T02:11:33;99662.44;;;9.84;nan
70468;BME280;57934;51.532;7.684;2023-04-22T02:13:59;99668.09;;;9.81;nan
70468;BME280;57934;51.532;7.684;2023-04-22T02:16:25;99673.78;;;9.78;nan
70468;BME280;57934;51.532;7.684;2023-04-22T02:18:51;99662.66;;;9.76;nan
70468;BME280;57934;51.532;7.684;2023-04-22T02:21:17;99668.31;;;9.79;nan
70468;BME280;57934;51.532;7.684;2023-04-22T02:23:43;99661.00;;;9.82;nan
70468;BME280;57934;51.532;7.684;2023-04-22T02:26:09;99662.22;;;9.86;nan
70468;BME280;57934;51.532;7.684;2023-04-22T02:28:36;99665.06;;;9.91;nan
70468;BME280;57934;51.532;7.684;2023-04-22T02:31:02;99661.00;;;9.95;nan
70468;BME280;57934;51.532;7.684;2023-04-22T02:33:28;99666.88;;;9.97;nan
70468;BME280;57934;51.532;7.684;2023-04-22T02:35:54;99662.81;;;10.01;nan
70468;BME280;57934;51.532;7.684;2023-04-22T02:38:20;99660.38;;;10.13;nan
70468;BME280;57934;51.532;7.684;2023-04-22T02:40:46;99667.03;;;10.22;nan
70468;BME280;57934;51.532;7.684;2023-04-22T02:43:12;99664.84;;;10.25;nan
70468;BME280;57934;51.532;7.684;2023-04-22T02:45:38;99666.63;;;10.32;nan
70468;BME280;57934;51.532;7.684;2023-04-22T02:48:06;99662.59;;;10.36;nan
70468;BME280;57934;51.532;7.684;2023-04-22T02:50:32;99663.75;;;10.46;nan
70468;BME280;57934;51.532;7.684;2023-04-22T02:52:58;99651.59;;;10.45;nan
70468;BME280;57934;51.532;7.684;2023-04-22T02:55:24;99660.53;;;10.44;nan
70468;BME280;57934;51.532;7.684;2023-04-22T02:57:50;99651.00;;;10.43;nan
70468;BME280;57934;51.532;7.684;2023-04-22T03:00:16;99644.69;;;10.51;nan
70468;BME280;57934;51.532;7.684;2023-04-22T03:02:42;99647.94;;;10.53;nan
70468;BME280;57934;51.532;7.684;2023-04-22T03:05:13;99647.50;;;10.56;nan
70468;BME280;57934;51.532;7.684;2023-04-22T03:07:39;99648.91;;;10.59;nan
70468;BME280;57934;51.532;7.684;2023-04-22T03:10:06;99638.16;;;10.60;nan
70468;BME280;57934;51.532;7.684;2023-04-22T03:12:33;99634.25;;;10.69;nan
70468;BME280;57934;51.532;7.684;2023-04-22T03:14:59;99632.41;;;10.77;nan
70468;BME280;57934;51.532;7.684;2023-04-22T03:17:29;99634.03;;;10.78;nan
70468;BME280;57934;51.532;7.684;2023-04-22T03:19:55;99627.09;;;10.83;nan
70468;BME280;57934;51.532;7.684;2023-04-22T03:22:21;99628.28;;;10.87;nan
70468;BME280;57934;51.532;7.684;2023-04-22T03:24:49;99631.31;;;10.91;nan
70468;BME280;57934;51.532;7.684;2023-04-22T03:27:15;99633.94;;;10.91;nan
70468;BME280;57934;51.532;7.684;2023-04-22T03:29:41;99638.81;;;10.94;nan
70468;BME280;57934;51.532;7.684;2023-04-22T03:32:07;99631.31;;;10.91;nan
70468;BME280;57934;51.532;7.684;2023-04-22T03:34:35;99633.97;;;10.84;nan
70468;BME280;57934;51.532;7.684;2023-04-22T03:37:01;99623.00;;;10.87;nan
70468;BME280;57934;51.532;7.684;2023-04-22T03:39:27;99624.41;;;10.90;nan
70468;BME280;57934;51.532;7.684;2023-04-22T03:41:53;99619.53;;;10.93;nan
70468;BME280;57934;51.532;7.684;2023-04-22T03:44:19;99613.59;;;10.98;nan
70468;BME280;57934;51.532;7.684;2023-04-22T03:46:46;99617.25;;;11.04;nan
70468;BME280;57934;51.532;7.684;2023-04-22T03:49:18;99612.56;;;11.06;nan
70468;BME280;57934;51.532;7.684;2023-04-22T03:51:44;99613.91;;;11.15;nan
70468;BME280;57934;51.532;7.684;2023-04-22T03:54:15;99602.97;;;11.11;nan
70468;BME280;57934;51.532;7.684;2023-04-22T03:56:47;99606.19;;;11.20;nan
70468;BME280;57934;51.532;7.684;2023-04-22T03:59:13;99595.63;;;11.20;nan
70468;BME280;57934;51.532;7.684;2023-04-22T04:01:39;99603.03;;;11.30;nan
70468;BME280;57934;51.532;7.684;2023-04-22T04:04:07;99595.34;;;11.28;nan
70468;BME280;57934;51.532;7.684;2023-04-22T04:06:41;99594.50;;;11.34;nan
70468;BME280;57934;51.532;7.684;2023-04-22T04:09:07;99593.69;;;11.34;nan
70468;BME280;57934;51.532;7.684;2023-04-22T04:11:33;99600.16;;;11.38;nan
70468;BME280;57934;51.532;7.684;2023-04-22T04:14:00;99597.94;;;11.35;nan
70468;BME280;57934;51.532;7.684;2023-04-22T04:16:47;99602.56;;;11.39;nan
70468;BME280;57934;51.532;7.684;2023-04-22T04:19:24;99599.72;;;11.41;nan
70468;BME280;57934;51.532;7.684;2023-04-22T04:21:50;99598.69;;;11.42;nan
70468;BME280;57934;51.532;7.684;2023-04-22T04:24:16;99595.84;;;11.43;nan
70468;BME280;57934;51.532;7.684;2023-04-22T04:26:48;99588.56;;;11.39;nan
70468;BME280;57934;51.532;7.684;2023-04-22T04:29:18;99587.53;;;11.40;nan
70468;BME280;57934;51.532;7.684;2023-04-22T04:31:59;99584.91;;;11.40;nan
70468;BME280;57934;51.532;7.684;2023-04-22T04:34:27;99581.81;;;11.43;nan
70468;BME280;57934;51.532;7.684;2023-04-22T04:36:53;99587.72;;;11.45;nan
70468;BME280;57934;51.532;7.684;2023-04-22T04:39:26;99590.34;;;11.45;nan
70468;BME280;57934;51.532;7.684;2023-04-22T04:41:54;99578.91;;;11.51;nan
70468;BME280;57934;51.532;7.684;2023-04-22T04:44:24;99575.03;;;11.54;nan
70468;BME280;57934;51.532;7.684;2023-04-22T04:46:55;99564.28;;;11.55;nan
70468;BME280;57934;51.532;7.684;2023-04-22T04:49:23;99580.31;;;11.54;nan
70468;BME280;57934;51.532;7.684;2023-04-22T04:51:57;99566.97;;;11.49;nan
70468;BME280;57934;51.532;7.684;2023-04-22T04:54:24;99562.25;;;11.51;nan
70468;BME280;57934;51.532;7.684;2023-04-22T04:56:50;99565.69;;;11.51;nan
70468;BME280;57934;51.532;7.684;2023-04-22T04:59:16;99561.03;;;11.53;nan
70468;BME280;57934;51.532;7.684;2023-04-22T05:01:42;99567.78;;;11.49;nan
70468;BME280;57934;51.532;7.684;2023-04-22T05:04:11;99561.75;;;11.42;nan
70468;BME280;57934;51.532;7.684;2023-04-22T05:06:40;99569.59;;;11.49;nan
70468;BME280;57934;51.532;7.684;2023-04-22T05:09:06;99564.75;;;11.45;nan
70468;BME280;57934;51.532;7.684;2023-04-22T05:11:33;99560.28;;;11.46;nan
70468;BME280;57934;51.532;7.684;2023-04-22T05:14:02;99560.41;;;11.51;nan
70468;BME280;57934;51.532;7.684;2023-04-22T05:16:35;99563.28;;;11.50;nan
70468;BME280;57934;51.532;7.684;2023-04-22T05:19:02;99562.88;;;11.53;nan
70468;BME280;57934;51.532;7.684;2023-04-22T05:21:28;99571.59;;;11.53;nan
70468;BME280;57934;51.532;7.684;2023-04-22T05:23:56;99568.09;;;11.59;nan
70468;BME280;57934;51.532;7.684;2023-04-22T05:26:23;99571.25;;;11.68;nan
70468;BME280;57934;51.532;7.684;2023-04-22T05:28:49;99564.88;;;11.76;nan
70468;BME280;57934;51.532;7.684;2023-04-22T05:31:17;99572.34;;;11.79;nan
70468;BME280;57934;51.532;7.684;2023-04-22T05:33:43;99572.97;;;11.81;nan
70468;BME280;57934;51.532;7.684;2023-04-22T05:36:09;99570.84;;;11.89;nan
70468;BME280;57934;51.532;7.684;2023-04-22T05:38:35;99570.22;;;11.94;nan
70468;BME280;57934;51.532;7.684;2023-04-22T05:41:01;99569.19;;;11.95;nan
70468;BME280;57934;51.532;7.684;2023-04-22T05:43:28;99564.84;;;12.01;nan
70468;BME280;57934;51.532;7.684;2023-04-22T05:46:01;99565.59;;;12.08;nan
70468;BME280;57934;51.532;7.684;2023-04-22T05:48:27;99564.56;;;12.09;nan
70468;BME280;57934;51.532;7.684;2023-04-22T05:51:00;99556.91;;;12.19;nan
70468;BME280;57934;51.532;7.684;2023-04-22T05:53:28;99557.13;;;12.17;nan
70468;BME280;57934;51.532;7.684;2023-04-22T05:55:55;99553.84;;;12.22;nan
70468;BME280;57934;51.532;7.684;2023-04-22T05:58:22;99548.22;;;12.30;nan
70468;BME280;57934;51.532;7.684;2023-04-22T06:00:53;99556.97;;;12.31;nan
70468;BME280;57934;51.532;7.684;2023-04-22T06:03:45;99556.09;;;12.37;nan
70468;BME280;57934;51.532;7.684;2023-04-22T06:06:11;99559.00;;;12.47;nan
70468;BME280;57934;51.532;7.684;2023-04-22T06:08:38;99561.56;;;12.54;nan
70468;BME280;57934;51.532;7.684;2023-04-22T06:11:04;99559.84;;;12.59;nan
70468;BME280;57934;51.532;7.684;2023-04-22T06:13:33;99564.97;;;12.73;nan
70468;BME280;57934;51.532;7.684;2023-04-22T06:15:59;99569.03;;;12.87;nan
70468;BME280;57934;51.532;7.684;2023-04-22T06:18:26;99557.81;;;13.03;nan
70468;BME280;57934;51.532;7.684;2023-04-22T06:20:52;99555.31;;;13.20;nan
70468;BME280;57934;51.532;7.684;2023-04-22T06:23:18;99558.69;;;13.39;nan
70468;BME280;57934;51.532;7.684;2023-04-22T06:25:44;99558.22;;;13.54;nan
70468;BME280;57934;51.532;7.684;2023-04-22T06:28:12;99554.41;;;13.61;nan
70468;BME280;57934;51.532;7.684;2023-04-22T06:30:38;99554.66;;;13.72;nan
70468;BME280;57934;51.532;7.684;2023-04-22T06:33:04;99551.06;;;13.78;nan
70468;BME280;57934;51.532;7.684;2023-04-22T06:35:31;99563.75;;;13.88;nan
70468;BME280;57934;51.532;7.684;2023-04-22T06:37:57;99552.31;;;13.99;nan
70468;BME280;57934;51.532;7.684;2023-04-22T06:40:27;99555.84;;;14.16;nan
70468;BME280;57934;51.532;7.684;2023-04-22T06:43:14;99556.38;;;14.30;nan
70468;BME280;57934;51.532;7.684;2023-04-22T06:45:58;99552.09;;;14.41;nan
70468;BME280;57934;51.532;7.684;2023-04-22T06:48:42;99556.00;;;14.50;nan
70468;BME280;57934;51.532;7.684;2023-04-22T06:51:37;99557.94;;;14.54;nan
70468;BME280;57934;51.532;7.684;2023-04-22T06:54:06;99551.69;;;14.61;nan
70468;BME280;57934;51.532;7.684;2023-04-22T06:56:32;99555.34;;;14.71;nan
70468;BME280;57934;51.532;7.684;2023-04-22T06:58:58;99561.22;;;14.90;nan
70468;BME280;57934;51.532;7.684;2023-04-22T07:01:24;99552.88;;;15.15;nan
70468;BME280;57934;51.532;7.684;2023-04-22T07:03:51;99558.94;;;15.44;nan
70468;BME280;57934;51.532;7.684;2023-04-22T07:06:18;99558.53;;;15.69;nan
70468;BME280;57934;51.532;7.684;2023-04-22T07:08:44;99558.66;;;15.80;nan
70468;BME280;57934;51.532;7.684;2023-04-22T07:11:10;99549.47;;;15.87;nan
70468;BME280;57934;51.532;7.684;2023-04-22T07:13:45;99545.38;;;16.02;nan
70468;BME280;57934;51.532;7.684;2023-04-22T07:16:11;99555.34;;;16.33;nan
70468;BME280;57934;51.532;7.684;2023-04-22T07:18:37;99549.66;;;16.52;nan
70468;BME280;57934;51.532;7.684;2023-04-22T07:21:04;99545.03;;;16.64;nan
70468;BME280;57934;51.532;7.684;2023-04-22T07:23:30;99542.97;;;16.71;nan
70468;BME280;57934;51.532;7.684;2023-04-22T07:25:56;99547.78;;;16.74;nan
70468;BME280;57934;51.532;7.684;2023-04-22T07:28:22;99540.91;;;16.78;nan
70468;BME280;57934;51.532;7.684;2023-04-22T07:30:48;99545.47;;;17.10;nan
70468;BME280;57934;51.532;7.684;2023-04-22T07:33:14;99538.38;;;17.26;nan
70468;BME280;57934;51.532;7.684;2023-04-22T07:35:40;99552.31;;;17.38;nan
70468;BME280;57934;51.532;7.684;2023-04-22T07:38:06;99553.84;;;17.29;nan
70468;BME280;57934;51.532;7.684;2023-04-22T07:40:33;99547.63;;;17.13;nan
70468;BME280;57934;51.532;7.684;2023-04-22T07:42:58;99546.06;;;16.90;nan
70468;BME280;57934;51.532;7.684;2023-04-22T07:45:26;99544.34;;;17.06;nan
70468;BME280;57934;51.532;7.684;2023-04-22T07:47:52;99546.47;;;17.04;nan
70468;BME280;57934;51.532;7.684;2023-04-22T07:50:18;99537.03;;;16.91;nan
70468;BME280;57934;51.532;7.684;2023-04-22T07:52:44;99539.69;;;16.91;nan
70468;BME280;57934;51.532;7.684;2023-04-22T07:55:10;99534.06;;;17.20;nan
70468;BME280;57934;51.532;7.684;2023-04-22T07:57:36;99537.88;;;17.34;nan
70468;BME280;57934;51.532;7.684;2023-04-22T08:00:07;99534.06;;;18.04;nan
70468;BME280;57934;51.532;7.684;2023-04-22T08:02:40;99532.38;;;19.63;nan
70468;BME280;57934;51.532;7.684;2023-04-22T08:05:06;99529.69;;;20.33;nan
70468;BME280;57934;51.532;7.684;2023-04-22T08:07:32;99522.78;;;20.71;nan
70468;BME280;57934;51.532;7.684;2023-04-22T08:09:59;99525.44;;;21.40;nan
70468;BME280;57934;51.532;7.684;2023-04-22T08:12:25;99516.31;;;22.70;nan
